Time;durP1;ratioP1;P1;durP2;ratioP2;P2;SDS_P1;SDS_P2;PMS_P1;PMS_P2;Temp;Humidity;BMP_temperature;BMP_pressure;BME280_temperature;BME280_humidity;BME280_pressure;Samples;Min_cycle;Max_cycle;Signal;HPM_P1;HPM_P2
2022/05/24 00:01:19;;;;;;;;;;;21.40;84.40;;;;;;5053293;28;19937;-91
2022/05/24 00:03:45;;;;;;;;;;;21.40;84.50;;;;;;5053231;28;19962;-91
2022/05/24 00:06:11;;;;;;;;;;;21.40;84.50;;;;;;5053292;28;19969;-91
2022/05/24 00:08:37;;;;;;;;;;;21.40;84.50;;;;;;5053082;28;19939;-90
2022/05/24 00:11:02;;;;;;;;;;;21.40;84.70;;;;;;5053046;28;20318;-91
2022/05/24 00:13:28;;;;;;;;;;;21.30;84.90;;;;;;5053109;28;19952;-90
2022/05/24 00:15:54;;;;;;;;;;;21.30;85.00;;;;;;5065978;28;19958;-91
2022/05/24 00:18:21;;;;;;;;;;;21.30;85.10;;;;;;5072750;28;19952;-91
2022/05/24 00:20:48;;;;;;;;;;;21.30;85.20;;;;;;5073118;28;19942;-91
2022/05/24 00:23:14;;;;;;;;;;;21.30;85.20;;;;;;5073026;28;20010;-91
2022/05/24 00:25:48;;;;;;;;;;;21.30;85.30;;;;;;5061825;28;19955;-91
2022/05/24 00:28:14;;;;;;;;;;;21.20;85.40;;;;;;5052829;28;19956;-91
2022/05/24 00:30:40;;;;;;;;;;;21.20;85.60;;;;;;5052863;28;19963;-90
2022/05/24 00:33:06;;;;;;;;;;;21.20;85.50;;;;;;5052863;28;20036;-91
2022/05/24 00:35:32;;;;;;;;;;;21.20;85.40;;;;;;5052809;28;20366;-91
2022/05/24 00:37:58;;;;;;;;;;;21.20;85.40;;;;;;5052833;28;19944;-91
2022/05/24 00:40:48;;;;;;;;;;;21.10;85.30;;;;;;5052834;28;19943;-91
2022/05/24 00:43:21;;;;;;;;;;;21.20;85.20;;;;;;5052837;28;19959;-90
2022/05/24 00:45:49;;;;;;;;;;;21.10;85.30;;;;;;5052880;28;19949;-91
2022/05/24 00:48:36;;;;;;;;;;;21.10;85.30;;;;;;5052735;28;20037;-91
2022/05/24 00:51:03;;;;;;;;;;;21.10;85.50;;;;;;5052773;28;19969;-91
2022/05/24 00:53:42;;;;;;;;;;;21.00;85.50;;;;;;5052706;28;19993;-91
2022/05/24 00:56:13;;;;;;;;;;;21.10;85.40;;;;;;5064226;28;19944;-91
2022/05/24 00:58:53;;;;;;;;;;;21.10;85.40;;;;;;5072713;28;19939;-91
2022/05/24 01:01:21;;;;;;;;;;;21.10;85.30;;;;;;5072682;28;20046;-91
2022/05/24 01:03:47;;;;;;;;;;;21.10;85.30;;;;;;5072660;28;19995;-91
2022/05/24 01:06:12;;;;;;;;;;;21.10;85.20;;;;;;5062173;28;20396;-91
2022/05/24 01:08:39;;;;;;;;;;;21.20;85.10;;;;;;5056399;28;20319;-91
2022/05/24 01:11:05;;;;;;;;;;;21.20;85.00;;;;;;5056386;28;19986;-91
2022/05/24 01:13:31;;;;;;;;;;;21.20;84.90;;;;;;5056570;28;19940;-91
2022/05/24 01:15:56;;;;;;;;;;;21.20;84.80;;;;;;5065877;28;19946;-91
2022/05/24 01:18:24;;;;;;;;;;;21.10;84.80;;;;;;5076221;28;19939;-91
2022/05/24 01:20:53;;;;;;;;;;;21.10;84.80;;;;;;5057883;28;19993;-90
2022/05/24 01:23:41;;;;;;;;;;;21.10;84.70;;;;;;5056085;28;19948;-91
2022/05/24 01:26:10;;;;;;;;;;;21.00;84.60;;;;;;5036664;28;19945;-91
2022/05/24 01:28:40;;;;;;;;;;;21.00;84.60;;;;;;5056025;28;19945;-91
2022/05/24 01:31:06;;;;;;;;;;;21.00;84.60;;;;;;5055956;28;19966;-91
2022/05/24 01:36:17;;;;;;;;;;;21.00;84.30;;;;;;5056019;28;19955;-91
2022/05/24 01:38:51;;;;;;;;;;;20.90;84.30;;;;;;5055897;28;19949;-91
2022/05/24 01:41:21;;;;;;;;;;;20.90;84.40;;;;;;5055870;28;19934;-91
2022/05/24 01:43:48;;;;;;;;;;;20.80;84.40;;;;;;5056329;28;20033;-91
2022/05/24 01:46:16;;;;;;;;;;;20.80;84.50;;;;;;5075956;28;19944;-91
2022/05/24 01:48:46;;;;;;;;;;;20.80;84.60;;;;;;5075701;28;19945;-92
2022/05/24 01:51:13;;;;;;;;;;;20.80;84.70;;;;;;5075653;28;20105;-91
2022/05/24 01:53:42;;;;;;;;;;;20.80;84.60;;;;;;5075570;28;19956;-91
2022/05/24 01:56:10;;;;;;;;;;;20.80;84.50;;;;;;5055836;28;19950;-91
2022/05/24 01:58:37;;;;;;;;;;;20.80;84.50;;;;;;5055766;28;19948;-91
2022/05/24 02:01:10;;;;;;;;;;;20.80;84.40;;;;;;5054139;28;20477;-91
2022/05/24 02:03:35;;;;;;;;;;;20.80;84.30;;;;;;5055429;28;20396;-91
2022/05/24 02:06:16;;;;;;;;;;;20.80;84.30;;;;;;5073016;28;19977;-91
2022/05/24 02:08:41;;;;;;;;;;;20.80;84.30;;;;;;5075290;28;19946;-91
2022/05/24 02:11:07;;;;;;;;;;;20.80;84.30;;;;;;5075334;28;19939;-91
2022/05/24 02:13:38;;;;;;;;;;;20.70;84.20;;;;;;5075260;28;20070;-91
2022/05/24 02:16:06;;;;;;;;;;;20.80;84.20;;;;;;5056318;28;20041;-91
2022/05/24 02:18:32;;;;;;;;;;;20.70;84.20;;;;;;5055113;28;19941;-91
2022/05/24 02:20:58;;;;;;;;;;;20.70;84.20;;;;;;5055091;28;20027;-90
2022/05/24 02:23:24;;;;;;;;;;;20.70;84.10;;;;;;5054989;28;20057;-91
2022/05/24 02:25:53;;;;;;;;;;;20.70;84.10;;;;;;5068255;28;19944;-90
2022/05/24 02:28:21;;;;;;;;;;;20.60;84.20;;;;;;5073572;28;19973;-90
2022/05/24 02:30:49;;;;;;;;;;;20.60;84.40;;;;;;5074894;28;19938;-90
2022/05/24 02:33:15;;;;;;;;;;;20.50;84.50;;;;;;5074762;28;20096;-91
2022/05/24 02:35:40;;;;;;;;;;;20.50;84.40;;;;;;5059899;28;20425;-91
2022/05/24 02:38:06;;;;;;;;;;;20.50;84.40;;;;;;5054706;28;20398;-91
2022/05/24 02:43:16;;;;;;;;;;;20.40;84.20;;;;;;5054944;28;20299;-91
2022/05/24 02:45:42;;;;;;;;;;;20.40;84.20;;;;;;5054764;28;19948;-91
2022/05/24 02:48:08;;;;;;;;;;;20.30;84.40;;;;;;5054149;28;19962;-90
2022/05/24 02:50:33;;;;;;;;;;;20.30;84.50;;;;;;5054518;28;19936;-90
2022/05/24 02:52:59;;;;;;;;;;;20.20;84.70;;;;;;5054865;28;19980;-90
2022/05/24 02:55:24;;;;;;;;;;;20.20;84.80;;;;;;5054423;28;19935;-91
2022/05/24 02:57:50;;;;;;;;;;;20.10;84.90;;;;;;5054375;28;20027;-91
2022/05/24 03:00:20;;;;;;;;;;;20.00;85.00;;;;;;5054363;28;19988;-91
2022/05/24 03:02:45;;;;;;;;;;;20.00;85.20;;;;;;5067746;28;20012;-90
2022/05/24 03:05:12;;;;;;;;;;;19.90;85.20;;;;;;5073886;28;19985;-90
2022/05/24 03:10:23;;;;;;;;;;;19.80;85.40;;;;;;5074109;28;20395;-91
2022/05/24 03:15:33;;;;;;;;;;;19.80;85.50;;;;;;5074275;28;19944;-90
2022/05/24 03:17:59;;;;;;;;;;;19.70;85.60;;;;;;5073955;28;20029;-90
2022/05/24 03:20:26;;;;;;;;;;;19.70;85.60;;;;;;5073926;28;20023;-91
2022/05/24 03:22:51;;;;;;;;;;;19.70;85.70;;;;;;5059404;28;20058;-90
2022/05/24 03:25:17;;;;;;;;;;;19.70;85.60;;;;;;5053881;28;19993;-91
2022/05/24 03:27:43;;;;;;;;;;;19.70;85.60;;;;;;5053009;28;19963;-90
2022/05/24 03:30:08;;;;;;;;;;;19.70;85.60;;;;;;5054039;28;19982;-90
2022/05/24 03:32:34;;;;;;;;;;;19.70;85.50;;;;;;5053938;28;19948;-90
2022/05/24 03:35:07;;;;;;;;;;;19.70;85.40;;;;;;5053617;28;19942;-90
2022/05/24 03:37:32;;;;;;;;;;;19.70;85.30;;;;;;5053490;28;19956;-90
2022/05/24 03:39:58;;;;;;;;;;;19.70;85.30;;;;;;5053615;28;19947;-90
2022/05/24 03:42:24;;;;;;;;;;;19.70;85.10;;;;;;5063111;28;19939;-91
2022/05/24 03:44:49;;;;;;;;;;;19.70;85.00;;;;;;5073511;28;19948;-91
2022/05/24 03:47:15;;;;;;;;;;;19.80;84.80;;;;;;5073474;28;19961;-90
2022/05/24 03:49:40;;;;;;;;;;;19.80;84.70;;;;;;5073472;28;19986;-90
2022/05/24 03:52:06;;;;;;;;;;;19.80;84.60;;;;;;5070549;28;20317;-90
2022/05/24 03:54:32;;;;;;;;;;;19.80;84.30;;;;;;5073346;28;19953;-90
2022/05/24 03:59:42;;;;;;;;;;;19.90;83.90;;;;;;5073307;28;19988;-91
2022/05/24 04:02:08;;;;;;;;;;;19.90;83.80;;;;;;5072668;28;19942;-90
2022/05/24 04:04:34;;;;;;;;;;;20.00;83.50;;;;;;5073534;28;19991;-91
2022/05/24 04:06:59;;;;;;;;;;;20.20;82.90;;;;;;5062427;22;19983;-90
2022/05/24 04:09:25;;;;;;;;;;;20.20;82.40;;;;;;5053179;28;20389;-90
2022/05/24 04:11:53;;;;;;;;;;;20.30;82.30;;;;;;5048529;28;19948;-90
2022/05/24 04:14:18;;;;;;;;;;;20.40;82.00;;;;;;5033218;28;19944;-90
2022/05/24 04:16:44;;;;;;;;;;;20.50;81.60;;;;;;5033182;28;19936;-90
2022/05/24 04:19:09;;;;;;;;;;;20.50;81.50;;;;;;5033108;28;20388;-90
2022/05/24 04:21:35;;;;;;;;;;;20.50;81.30;;;;;;5033317;28;20413;-90
2022/05/24 04:24:00;;;;;;;;;;;20.50;81.40;;;;;;5032968;28;19966;-90
2022/05/24 04:26:26;;;;;;;;;;;20.60;81.50;;;;;;5033020;28;19947;-91
2022/05/24 04:28:51;;;;;;;;;;;20.60;81.30;;;;;;5033026;28;19943;-91
2022/05/24 04:31:17;;;;;;;;;;;20.60;81.20;;;;;;5033000;28;19938;-90
2022/05/24 04:33:42;;;;;;;;;;;20.70;81.20;;;;;;5051959;28;19951;-91
2022/05/24 04:36:08;;;;;;;;;;;20.80;80.90;;;;;;5052916;28;19943;-90
2022/05/24 04:38:33;;;;;;;;;;;20.80;80.90;;;;;;5052866;28;20034;-91
2022/05/24 04:43:43;;;;;;;;;;;20.80;80.20;;;;;;5056537;28;20038;-90
2022/05/24 04:46:09;;;;;;;;;;;20.90;80.10;;;;;;5056854;28;20387;-91
2022/05/24 04:48:34;;;;;;;;;;;20.90;80.00;;;;;;5056513;28;20473;-91
2022/05/24 04:51:00;;;;;;;;;;;21.00;80.00;;;;;;5056708;28;20426;-91
2022/05/24 04:53:26;;;;;;;;;;;21.10;79.80;;;;;;5056448;28;20495;-91
2022/05/24 04:55:52;;;;;;;;;;;21.10;79.30;;;;;;5056669;28;19944;-90
2022/05/24 04:58:18;;;;;;;;;;;21.20;79.10;;;;;;5055375;28;19954;-90
2022/05/24 05:00:44;;;;;;;;;;;21.30;78.60;;;;;;5055937;28;19947;-91
2022/05/24 05:03:10;;;;;;;;;;;21.30;78.20;;;;;;5056076;28;20442;-91
2022/05/24 05:05:36;;;;;;;;;;;21.30;78.10;;;;;;5055953;28;20068;-91
2022/05/24 05:08:02;;;;;;;;;;;21.40;77.70;;;;;;5055831;28;20051;-90
2022/05/24 05:10:28;;;;;;;;;;;21.40;77.60;;;;;;5055690;28;19941;-90
2022/05/24 05:12:53;;;;;;;;;;;21.50;77.20;;;;;;5055523;28;19957;-91
2022/05/24 05:15:19;;;;;;;;;;;21.60;77.00;;;;;;5056243;28;20449;-91
2022/05/24 05:17:44;;;;;;;;;;;21.60;77.00;;;;;;5056255;28;19940;-90
2022/05/24 05:20:10;;;;;;;;;;;21.70;77.00;;;;;;5055428;28;19952;-90
2022/05/24 05:22:37;;;;;;;;;;;21.70;76.90;;;;;;5055370;28;19982;-90
2022/05/24 05:25:02;;;;;;;;;;;21.80;76.40;;;;;;5055093;28;19936;-90
2022/05/24 05:27:28;;;;;;;;;;;21.80;76.60;;;;;;5055343;28;19966;-90
2022/05/24 05:32:38;;;;;;;;;;;22.00;76.10;;;;;;5050050;28;19965;-91
2022/05/24 05:35:04;;;;;;;;;;;22.10;75.90;;;;;;5053666;28;20411;-90
2022/05/24 05:37:31;;;;;;;;;;;22.30;75.90;;;;;;5054362;28;20035;-90
2022/05/24 05:39:56;;;;;;;;;;;22.40;75.60;;;;;;5054171;28;19942;-90
2022/05/24 05:42:22;;;;;;;;;;;22.60;74.90;;;;;;5054007;28;20430;-90
2022/05/24 05:44:48;;;;;;;;;;;22.70;74.70;;;;;;5054484;28;20420;-91
2022/05/24 05:47:15;;;;;;;;;;;22.80;74.20;;;;;;5052655;28;19954;-91
2022/05/24 05:49:41;;;;;;;;;;;22.90;74.00;;;;;;5052180;28;19950;-91
2022/05/24 05:52:06;;;;;;;;;;;23.00;74.00;;;;;;5053455;28;19950;-91
2022/05/24 05:54:33;;;;;;;;;;;23.10;74.10;;;;;;5054627;28;19951;-91
2022/05/24 05:56:59;;;;;;;;;;;23.10;73.80;;;;;;5051952;28;19950;-91
2022/05/24 05:59:25;;;;;;;;;;;23.20;73.80;;;;;;5054177;28;19957;-91
2022/05/24 06:01:51;;;;;;;;;;;23.20;73.70;;;;;;5053690;28;19949;-91
2022/05/24 06:04:16;;;;;;;;;;;23.20;73.80;;;;;;5054727;28;20406;-91
2022/05/24 06:06:44;;;;;;;;;;;23.20;73.70;;;;;;5053584;28;19974;-90
2022/05/24 06:09:09;;;;;;;;;;;23.20;73.90;;;;;;5052394;28;19973;-91
2022/05/24 06:11:35;;;;;;;;;;;23.20;73.60;;;;;;5054360;28;20330;-91
2022/05/24 06:14:01;;;;;;;;;;;23.20;73.40;;;;;;5051380;28;19941;-90
2022/05/24 06:16:27;;;;;;;;;;;23.30;73.50;;;;;;5053354;28;20038;-90
2022/05/24 06:18:52;;;;;;;;;;;23.30;73.80;;;;;;5056667;28;20060;-90
2022/05/24 06:21:18;;;;;;;;;;;23.20;73.80;;;;;;5062533;28;20408;-90
2022/05/24 06:23:43;;;;;;;;;;;23.30;74.30;;;;;;5058216;28;20435;-90
2022/05/24 06:26:09;;;;;;;;;;;23.30;73.90;;;;;;5058527;28;20406;-90
2022/05/24 06:28:35;;;;;;;;;;;23.30;73.70;;;;;;5050221;28;19966;-89
2022/05/24 06:31:00;;;;;;;;;;;23.30;73.50;;;;;;5051511;28;20678;-90
2022/05/24 06:33:26;;;;;;;;;;;23.40;73.40;;;;;;5050430;28;19949;-90
2022/05/24 06:35:52;;;;;;;;;;;23.50;73.20;;;;;;5048619;28;19941;-90
2022/05/24 06:38:17;;;;;;;;;;;23.60;72.80;;;;;;5050498;28;20046;-90
2022/05/24 06:40:43;;;;;;;;;;;23.60;72.50;;;;;;5049879;28;19950;-90
2022/05/24 06:43:09;;;;;;;;;;;23.70;72.30;;;;;;5049434;28;19953;-90
2022/05/24 06:45:34;;;;;;;;;;;23.70;72.40;;;;;;5050549;28;20483;-90
2022/05/24 06:48:00;;;;;;;;;;;23.70;72.20;;;;;;5049571;28;20134;-90
2022/05/24 06:50:26;;;;;;;;;;;23.70;72.00;;;;;;5050898;28;20329;-90
2022/05/24 06:52:53;;;;;;;;;;;23.60;72.30;;;;;;5047279;28;20421;-90
2022/05/24 06:55:20;;;;;;;;;;;23.60;72.30;;;;;;5050090;28;19985;-90
2022/05/24 06:57:45;;;;;;;;;;;23.40;72.50;;;;;;5049072;28;19993;-90
2022/05/24 07:02:59;;;;;;;;;;;23.50;72.70;;;;;;5050168;28;19951;-90
2022/05/24 07:05:25;;;;;;;;;;;23.60;73.10;;;;;;5049150;28;20128;-90
2022/05/24 07:07:51;;;;;;;;;;;23.70;72.80;;;;;;5048175;28;22093;-90
2022/05/24 07:10:16;;;;;;;;;;;23.80;72.30;;;;;;5048417;28;19945;-90
2022/05/24 07:12:42;;;;;;;;;;;23.90;71.70;;;;;;5049816;28;20202;-90
2022/05/24 07:15:08;;;;;;;;;;;24.00;71.70;;;;;;5052113;28;20023;-90
2022/05/24 07:17:34;;;;;;;;;;;23.90;71.70;;;;;;5051052;28;19953;-90
2022/05/24 07:20:00;;;;;;;;;;;23.90;71.60;;;;;;5046411;28;19950;-90
2022/05/24 07:22:25;;;;;;;;;;;23.90;71.50;;;;;;5048599;28;20411;-90
2022/05/24 07:24:51;;;;;;;;;;;23.90;71.60;;;;;;5052247;28;19952;-89
2022/05/24 07:27:18;;;;;;;;;;;23.90;72.00;;;;;;5049476;28;19961;-91
2022/05/24 07:29:44;;;;;;;;;;;23.90;71.70;;;;;;5049647;28;20403;-91
2022/05/24 07:32:09;;;;;;;;;;;24.00;71.50;;;;;;5049048;28;19960;-91
2022/05/24 07:34:36;;;;;;;;;;;24.10;71.60;;;;;;5050905;28;19946;-91
2022/05/24 07:37:03;;;;;;;;;;;24.30;71.30;;;;;;5051955;28;19948;-91
2022/05/24 07:39:28;;;;;;;;;;;24.50;70.80;;;;;;5049581;28;20031;-90
2022/05/24 07:47:21;;;;;;;;;;;24.90;69.70;;;;;;5046375;28;19965;-90
2022/05/24 07:49:46;;;;;;;;;;;25.10;69.70;;;;;;5045961;28;20423;-91
2022/05/24 07:52:12;;;;;;;;;;;25.20;68.80;;;;;;5045038;28;19953;-90
2022/05/24 07:54:37;;;;;;;;;;;25.40;68.20;;;;;;5044882;28;19949;-90
2022/05/24 07:57:03;;;;;;;;;;;25.40;68.20;;;;;;5041061;28;19945;-91
2022/05/24 07:59:29;;;;;;;;;;;25.50;66.50;;;;;;5046671;28;20437;-90
2022/05/24 08:01:55;;;;;;;;;;;25.50;66.50;;;;;;5046443;28;19946;-91
2022/05/24 08:04:20;;;;;;;;;;;25.50;66.10;;;;;;5045350;28;19995;-90
2022/05/24 08:06:46;;;;;;;;;;;25.50;66.30;;;;;;5042812;28;19947;-91
2022/05/24 08:09:11;;;;;;;;;;;25.60;66.70;;;;;;5045860;28;19955;-90
2022/05/24 08:11:37;;;;;;;;;;;25.70;66.50;;;;;;5047577;28;19968;-90
2022/05/24 08:14:03;;;;;;;;;;;25.70;66.30;;;;;;5047460;28;20439;-91
2022/05/24 08:16:29;;;;;;;;;;;25.70;66.00;;;;;;5044343;28;20091;-91
2022/05/24 08:18:55;;;;;;;;;;;25.70;66.00;;;;;;5044384;28;19941;-90
2022/05/24 08:21:20;;;;;;;;;;;25.80;65.70;;;;;;5046567;28;19940;-90
2022/05/24 08:23:46;;;;;;;;;;;25.90;65.70;;;;;;5048267;28;19961;-91
2022/05/24 08:26:12;;;;;;;;;;;26.00;64.90;;;;;;5047968;28;19950;-91
2022/05/24 08:28:39;;;;;;;;;;;26.10;64.10;;;;;;5045265;28;19964;-91
2022/05/24 08:31:05;;;;;;;;;;;26.20;63.40;;;;;;5047094;28;19951;-91
2022/05/24 08:33:31;;;;;;;;;;;26.20;63.00;;;;;;5047083;28;19961;-91
2022/05/24 08:35:56;;;;;;;;;;;26.00;63.60;;;;;;5047348;28;20034;-91
2022/05/24 08:38:23;;;;;;;;;;;26.00;63.40;;;;;;5049669;28;19946;-91
2022/05/24 08:40:50;;;;;;;;;;;26.00;63.20;;;;;;5047046;28;20294;-90
2022/05/24 08:43:34;;;;;;;;;;;25.90;63.80;;;;;;5049126;28;19958;-90
2022/05/24 08:48:54;;;;;;;;;;;25.90;63.60;;;;;;5045808;28;19984;-91
2022/05/24 08:51:27;;;;;;;;;;;26.10;63.80;;;;;;5048651;28;19960;-90
2022/05/24 08:53:54;;;;;;;;;;;26.30;62.70;;;;;;5048463;28;19950;-90
2022/05/24 08:56:22;;;;;;;;;;;26.30;63.00;;;;;;5047368;28;20323;-91
2022/05/24 08:58:50;;;;;;;;;;;26.40;62.10;;;;;;5041041;28;20382;-90
2022/05/24 09:01:23;;;;;;;;;;;26.40;61.70;;;;;;5043647;28;19961;-91
2022/05/24 09:03:49;;;;;;;;;;;26.50;61.60;;;;;;5045304;28;19989;-90
2022/05/24 09:06:34;;;;;;;;;;;26.40;61.50;;;;;;5041340;28;19972;-90
2022/05/24 09:09:22;;;;;;;;;;;26.40;60.70;;;;;;5045963;28;19998;-91
2022/05/24 09:11:59;;;;;;;;;;;26.50;61.20;;;;;;5049152;28;19977;-90
2022/05/24 09:14:44;;;;;;;;;;;26.70;62.00;;;;;;5045646;28;19939;-90
2022/05/24 09:17:16;;;;;;;;;;;26.90;60.70;;;;;;5024827;28;19997;-90
2022/05/24 09:19:42;;;;;;;;;;;27.10;61.50;;;;;;5044175;28;19952;-90
2022/05/24 09:22:10;;;;;;;;;;;27.30;59.20;;;;;;5043458;28;20054;-91
2022/05/24 09:24:36;;;;;;;;;;;27.50;57.80;;;;;;5049292;28;19956;-91
2022/05/24 09:27:03;;;;;;;;;;;27.60;60.40;;;;;;5052175;28;20302;-91
2022/05/24 09:29:31;;;;;;;;;;;27.80;57.80;;;;;;5051519;28;19949;-91
2022/05/24 09:31:57;;;;;;;;;;;27.80;56.20;;;;;;5050680;28;19946;-90
2022/05/24 09:34:30;;;;;;;;;;;27.80;58.90;;;;;;5053383;28;19956;-90
2022/05/24 09:36:57;;;;;;;;;;;27.80;56.40;;;;;;5049191;28;20003;-91
2022/05/24 09:39:31;;;;;;;;;;;27.70;56.30;;;;;;5049861;28;19986;-90
2022/05/24 09:42:02;;;;;;;;;;;27.70;56.30;;;;;;5052250;28;19993;-90
2022/05/24 09:44:29;;;;;;;;;;;27.70;57.80;;;;;;5048978;28;20385;-90
2022/05/24 09:46:54;;;;;;;;;;;27.80;57.40;;;;;;5052090;28;19975;-91
2022/05/24 09:49:33;;;;;;;;;;;27.90;56.50;;;;;;5052657;28;21777;-91
2022/05/24 09:52:13;;;;;;;;;;;28.00;56.80;;;;;;5054437;28;19955;-91
2022/05/24 09:54:49;;;;;;;;;;;28.20;57.50;;;;;;5051349;28;20014;-90
2022/05/24 09:57:20;;;;;;;;;;;28.30;55.40;;;;;;5053523;28;19943;-91
2022/05/24 09:59:57;;;;;;;;;;;28.50;57.40;;;;;;5052815;28;19946;-91
2022/05/24 10:02:30;;;;;;;;;;;28.60;54.90;;;;;;5052278;28;20006;-91
2022/05/24 10:04:56;;;;;;;;;;;28.70;56.90;;;;;;5049543;28;20032;-91
2022/05/24 10:07:26;;;;;;;;;;;28.70;55.50;;;;;;5052477;28;20073;-91
2022/05/24 10:10:10;;;;;;;;;;;28.80;54.50;;;;;;5050200;28;19942;-91
2022/05/24 10:13:05;;;;;;;;;;;28.80;53.20;;;;;;5053652;28;19948;-91
2022/05/24 10:15:49;;;;;;;;;;;28.80;53.80;;;;;;5012847;28;20426;-91
2022/05/24 10:18:20;;;;;;;;;;;28.60;53.40;;;;;;5035114;28;19931;-90
2022/05/24 10:20:51;;;;;;;;;;;28.60;54.00;;;;;;5047230;28;20330;-91
2022/05/24 10:23:38;;;;;;;;;;;28.70;54.30;;;;;;5053468;28;20405;-91
2022/05/24 10:26:41;;;;;;;;;;;28.80;54.20;;;;;;5055009;28;19951;-90
2022/05/24 10:29:19;;;;;;;;;;;28.90;53.80;;;;;;5011149;28;20443;-90
2022/05/24 10:31:55;;;;;;;;;;;28.80;52.20;;;;;;5030374;28;19952;-90
2022/05/24 10:40:06;;;;;;;;;;;29.30;51.80;;;;;;5055040;28;20070;-91
2022/05/24 10:42:47;;;;;;;;;;;29.50;51.60;;;;;;5053938;28;19960;-91
2022/05/24 10:45:17;;;;;;;;;;;29.50;51.70;;;;;;5053822;28;19954;-91
2022/05/24 10:49:33;;;;;;;;;;;29.30;50.70;;;;;;5109753;27;20057;-89
2022/05/24 10:52:17;;;;;;;;;;;29.10;50.90;;;;;;5107662;28;20034;-88
2022/05/24 10:54:55;;;;;;;;;;;29.10;52.20;;;;;;5107497;28;19955;-89
2022/05/24 10:57:24;;;;;;;;;;;29.20;52.70;;;;;;5089880;28;19951;-89
2022/05/24 11:00:03;;;;;;;;;;;29.30;54.50;;;;;;5110022;28;19956;-89
2022/05/24 11:02:37;;;;;;;;;;;29.50;52.90;;;;;;5108034;28;19943;-89
2022/05/24 11:05:11;;;;;;;;;;;29.70;51.60;;;;;;5107277;28;20000;-89
2022/05/24 11:07:37;;;;;;;;;;;29.80;52.90;;;;;;5109710;28;20036;-89
2022/05/24 11:10:09;;;;;;;;;;;29.90;51.80;;;;;;5110650;28;20337;-89
2022/05/24 11:12:37;;;;;;;;;;;30.20;49.90;;;;;;5108355;28;20240;-89
2022/05/24 11:15:09;;;;;;;;;;;30.50;48.40;;;;;;5090196;28;20414;-89
2022/05/24 11:17:35;;;;;;;;;;;30.60;47.10;;;;;;5090164;28;19948;-89
2022/05/24 11:20:04;;;;;;;;;;;30.40;47.00;;;;;;5090158;28;20368;-89
2022/05/24 11:22:36;;;;;;;;;;;30.30;47.20;;;;;;5087697;28;20399;-89
2022/05/24 11:25:22;;;;;;;;;;;30.20;48.90;;;;;;5082950;28;19986;-89
2022/05/24 11:27:52;;;;;;;;;;;30.00;48.20;;;;;;5091052;28;19962;-89
2022/05/24 11:30:27;;;;;;;;;;;29.80;49.30;;;;;;5092053;28;19955;-89
2022/05/24 11:33:05;;;;;;;;;;;29.70;49.20;;;;;;5085893;28;20038;-89
2022/05/24 11:35:52;;;;;;;;;;;29.80;49.20;;;;;;5084369;28;19950;-89
2022/05/24 11:38:32;;;;;;;;;;;30.20;49.20;;;;;;5088282;28;20348;-89
2022/05/24 11:41:01;;;;;;;;;;;30.40;50.60;;;;;;5090839;28;19958;-89
2022/05/24 11:43:32;;;;;;;;;;;30.70;48.90;;;;;;5086180;28;19950;-89
2022/05/24 11:46:00;;;;;;;;;;;31.10;45.40;;;;;;5085541;28;19951;-89
2022/05/24 11:48:45;;;;;;;;;;;31.20;45.70;;;;;;5085633;28;20571;-89
2022/05/24 11:51:31;;;;;;;;;;;31.30;48.00;;;;;;5090207;28;20308;-89
2022/05/24 11:53:57;;;;;;;;;;;31.20;45.60;;;;;;5079353;28;20078;-89
2022/05/24 11:56:24;;;;;;;;;;;31.20;46.20;;;;;;5084409;28;20375;-89
2022/05/24 11:58:52;;;;;;;;;;;31.40;46.70;;;;;;5088206;28;19944;-89
2022/05/24 12:01:19;;;;;;;;;;;31.20;47.40;;;;;;5075471;28;19988;-89
2022/05/24 12:09:59;;;;;;;;;;;32.50;44.20;;;;;;5067130;28;19962;-89
2022/05/24 12:12:29;;;;;;;;;;;32.70;42.60;;;;;;5066038;28;21369;-89
2022/05/24 12:15:05;;;;;;;;;;;33.10;43.40;;;;;;5065828;28;19939;-89
2022/05/24 12:17:31;;;;;;;;;;;33.20;41.90;;;;;;5078212;28;19953;-89
2022/05/24 12:19:56;;;;;;;;;;;33.40;41.10;;;;;;5063603;28;19956;-89
2022/05/24 12:22:26;;;;;;;;;;;33.50;40.90;;;;;;5085377;28;20041;-89
2022/05/24 12:24:54;;;;;;;;;;;33.30;41.00;;;;;;5084476;28;19949;-89
2022/05/24 12:27:22;;;;;;;;;;;33.40;40.00;;;;;;5070749;28;19952;-89
2022/05/24 12:29:57;;;;;;;;;;;33.60;39.70;;;;;;5071406;28;19950;-89
2022/05/24 12:32:24;;;;;;;;;;;33.80;41.90;;;;;;5073450;28;19953;-89
2022/05/24 12:34:50;;;;;;;;;;;33.90;39.70;;;;;;5082069;28;19948;-89
2022/05/24 12:37:26;;;;;;;;;;;33.90;39.40;;;;;;5085878;28;20028;-89
2022/05/24 12:40:04;;;;;;;;;;;33.90;40.30;;;;;;5065789;28;19943;-89
2022/05/24 12:42:30;;;;;;;;;;;33.70;40.70;;;;;;5072814;28;19944;-89
2022/05/24 12:44:59;;;;;;;;;;;33.70;40.70;;;;;;5065858;28;19942;-89
2022/05/24 12:47:24;;;;;;;;;;;33.20;42.30;;;;;;5077050;28;19976;-89
2022/05/24 12:49:50;;;;;;;;;;;33.60;43.00;;;;;;5072193;28;19936;-89
2022/05/24 12:52:18;;;;;;;;;;;33.70;41.50;;;;;;5072668;28;20311;-89
2022/05/24 12:54:45;;;;;;;;;;;33.90;40.70;;;;;;5072657;28;19950;-89
2022/05/24 12:57:13;;;;;;;;;;;34.30;39.50;;;;;;5071688;28;19948;-90
2022/05/24 12:59:40;;;;;;;;;;;34.30;39.70;;;;;;5074467;28;19954;-89
2022/05/24 13:02:27;;;;;;;;;;;34.10;41.30;;;;;;5068785;28;19944;-89
2022/05/24 13:04:54;;;;;;;;;;;34.30;42.80;;;;;;5061791;28;20009;-89
2022/05/24 13:07:36;;;;;;;;;;;34.80;39.80;;;;;;5068019;28;19964;-89
2022/05/24 13:10:06;;;;;;;;;;;35.20;39.10;;;;;;5075917;28;19950;-89
2022/05/24 13:12:31;;;;;;;;;;;35.60;39.70;;;;;;5069153;28;20034;-89
2022/05/24 13:15:01;;;;;;;;;;;35.50;40.90;;;;;;5069140;28;20034;-89
2022/05/24 13:17:28;;;;;;;;;;;35.20;41.10;;;;;;5069017;28;19965;-89
2022/05/24 13:19:53;;;;;;;;;;;34.80;41.80;;;;;;5076392;28;19947;-90
2022/05/24 13:22:20;;;;;;;;;;;35.50;40.70;;;;;;5082356;28;19950;-89
2022/05/24 13:24:50;;;;;;;;;;;36.50;39.40;;;;;;5079353;28;20292;-90
2022/05/24 13:27:16;;;;;;;;;;;36.70;38.30;;;;;;5074216;28;19947;-90
2022/05/24 13:35:10;;;;;;;;;;;36.90;36.90;;;;;;5073754;28;19945;-89
2022/05/24 13:37:49;;;;;;;;;;;35.70;39.30;;;;;;5073115;28;19940;-89
2022/05/24 13:40:15;;;;;;;;;;;34.60;41.10;;;;;;5072710;28;19957;-89
2022/05/24 13:42:56;;;;;;;;;;;33.90;43.70;;;;;;5073035;28;20019;-89
2022/05/24 13:45:23;;;;;;;;;;;33.50;44.00;;;;;;5070547;28;19945;-89
2022/05/24 13:47:53;;;;;;;;;;;33.20;44.80;;;;;;5071786;28;19982;-89
2022/05/24 13:50:21;;;;;;;;;;;33.30;45.90;;;;;;5073552;28;19941;-89
2022/05/24 13:52:50;;;;;;;;;;;33.50;45.00;;;;;;5070729;28;20390;-89
2022/05/24 13:55:18;;;;;;;;;;;34.20;43.20;;;;;;5070454;28;19943;-89
2022/05/24 13:57:43;;;;;;;;;;;34.90;42.50;;;;;;5070845;28;19949;-89
2022/05/24 14:00:19;;;;;;;;;;;35.10;42.30;;;;;;5074781;28;20005;-89
2022/05/24 14:02:45;;;;;;;;;;;35.20;41.90;;;;;;5067549;28;20041;-89
2022/05/24 14:05:30;;;;;;;;;;;35.10;40.60;;;;;;5073268;28;20429;-89
2022/05/24 14:07:55;;;;;;;;;;;35.70;39.80;;;;;;5071462;28;19964;-91
2022/05/24 14:10:21;;;;;;;;;;;36.50;38.80;;;;;;5070561;28;19989;-92
2022/05/24 14:12:46;;;;;;;;;;;36.30;38.30;;;;;;5069850;28;20595;-91
2022/05/24 14:15:13;;;;;;;;;;;35.90;38.80;;;;;;5070770;28;19945;-91
2022/05/24 14:17:38;;;;;;;;;;;35.60;40.10;;;;;;5067719;28;20020;-91
2022/05/24 14:20:04;;;;;;;;;;;35.30;39.20;;;;;;5067964;28;19958;-91
2022/05/24 14:23:38;;;;;;;;;;;35.70;39.90;;;;;;5088090;27;20360;-89
2022/05/24 14:26:04;;;;;;;;;;;35.80;39.30;;;;;;5102196;28;19950;-89
2022/05/24 14:28:30;;;;;;;;;;;36.30;37.70;;;;;;5065710;28;20029;-90
2022/05/24 14:30:56;;;;;;;;;;;37.50;35.80;;;;;;5068547;28;20048;-90
2022/05/24 14:33:23;;;;;;;;;;;38.00;34.90;;;;;;5079804;28;20296;-90
2022/05/24 14:35:48;;;;;;;;;;;38.10;33.60;;;;;;5067564;28;19958;-90
2022/05/24 14:38:14;;;;;;;;;;;38.40;33.30;;;;;;5067952;28;19942;-90
2022/05/24 14:40:40;;;;;;;;;;;38.40;33.90;;;;;;5069500;28;20005;-89
2022/05/24 14:43:10;;;;;;;;;;;38.10;33.90;;;;;;5074561;28;19962;-90
2022/05/24 14:45:35;;;;;;;;;;;38.20;34.00;;;;;;5064930;28;19974;-90
2022/05/24 14:48:01;;;;;;;;;;;38.40;33.10;;;;;;5075762;28;19950;-90
2022/05/24 14:50:27;;;;;;;;;;;38.80;32.30;;;;;;5071099;28;20029;-90
2022/05/24 14:52:52;;;;;;;;;;;38.90;32.40;;;;;;5071025;28;20384;-90
2022/05/24 14:55:20;;;;;;;;;;;39.30;32.10;;;;;;5077168;28;19954;-90
2022/05/24 14:57:45;;;;;;;;;;;38.80;32.00;;;;;;5071774;28;19955;-90
2022/05/24 15:00:11;;;;;;;;;;;38.40;32.70;;;;;;5070408;28;20297;-90
2022/05/24 15:02:40;;;;;;;;;;;39.00;32.50;;;;;;5078660;28;19973;-90
2022/05/24 15:05:07;;;;;;;;;;;39.10;31.60;;;;;;5070790;28;19953;-90
2022/05/24 15:15:45;;;;;;;;;;;37.10;35.30;;;;;;5076835;28;20028;-89
2022/05/24 15:20:13;;;;;;;;;;;37.30;34.10;;;;;;5110389;27;19961;-91
2022/05/24 15:22:41;;;;;;;;;;;36.60;35.60;;;;;;5105870;28;19972;-91
2022/05/24 15:25:09;;;;;;;;;;;35.90;36.80;;;;;;5104788;28;19950;-91